Latest Weather Observations for Horsham

IDV60801

Issued at 1:22 pm EDT Saturday 23 March 2019 (issued every 10 minutes, with the page automatically refreshed every 10 minutes)

About weather observations | Map of weather stations | Latest weather observations for VIC | Other Formats
Station Details ID: 079100 Name: HORSHAM AERODROME Lat: -36.67 Lon: 142.17 Height: 133.8 m
Data from the previous 72 hours. | See also: Recent months at Horsham
Date/Time
EDT
Temp
°C
App
Temp
°C
Dew
Point
°C
Rel
Hum
%
Delta-T
°C
Wind Press
QNH
hPa
Press
MSL
hPa
Rain since
9am
mm
Dir  Spd
km/h
Gust
km/h
Spd
kts
Gust
kts
23/01:00pm 28.9 21.7 7.5 26 11.6 W 35 48 19 26 1008.1 1007.7 0.0
23/12:30pm 28.6 22.1 8.3 28 11.1 W 32 43 17 23 1008.0 1007.6 0.0
23/12:00pm 27.4 22.3 11.8 38 9.0 W 30 39 16 21 1008.0 1007.6 0.0
23/11:30am 27.1 22.9 13.4 42 8.1 W 28 39 15 21 1008.2 1007.8 0.0
23/11:00am 26.0 22.6 13.8 47 7.3 W 24 33 13 18 1008.1 1007.7 0.0
23/10:30am 26.0 22.6 13.8 47 7.2 W 24 32 13 17 1008.0 1007.6 0.0
23/10:00am 25.4 21.7 12.6 45 7.4 W 24 30 13 16 1008.0 1007.6 0.0
23/09:30am 25.1 21.9 12.0 44 7.5 NW 20 26 11 14 1007.7 1007.3 0.0
23/09:00am 23.9 22.1 13.2 51 6.2 N 15 22 8 12 1007.6 1007.2 0.0
23/08:30am 22.8 21.0 13.3 55 5.5 NNE 15 19 8 10 1007.5 1007.1 0.0
23/08:00am 22.9 20.4 13.4 55 5.5 ENE 19 22 10 12 1007.2 1006.8 0.0
23/07:30am 23.2 20.6 13.7 55 5.6 ENE 20 26 11 14 1006.6 1006.2 0.0
23/07:00am 23.1 20.4 13.6 55 5.6 ENE 20 26 11 14 1006.7 1006.3 0.0
23/06:30am 22.3 20.3 13.9 59 4.9 ENE 17 19 9 10 1006.9 1006.5 0.0
23/06:00am 22.1 20.7 14.5 62 4.5 ENE 15 17 8 9 1007.1 1006.7 0.0
23/05:30am 22.4 20.6 14.5 61 4.7 NE 17 20 9 11 1007.1 1006.7 0.0
23/05:00am 22.5 19.6 15.1 63 4.4 NNE 24 28 13 15 1007.2 1006.8 0.0
23/04:30am 24.6 20.8 12.5 46 7.0 NNE 24 35 13 19 1007.2 1006.8 0.0
23/04:00am 23.9 21.4 12.2 48 6.7 NNE 17 20 9 11 1007.6 1007.2 0.0
23/03:30am 24.4 20.8 12.0 46 7.1 NNE 22 28 12 15 1007.6 1007.2 0.0
23/03:00am 25.0 20.4 12.2 44 7.4 NE 28 33 15 18 1007.6 1007.2 0.0
23/02:30am 25.1 20.0 12.0 44 7.5 NE 30 37 16 20 1007.7 1007.3 0.0
23/02:00am 25.1 19.9 11.6 42 7.7 NE 30 37 16 20 1007.7 1007.3 0.0
23/01:30am 25.4 20.2 10.4 39 8.4 NE 28 39 15 21 1008.0 1007.6 0.0
23/01:00am 25.6 20.6 9.4 36 8.9 NE 26 32 14 17 1008.5 1008.1 0.0
23/12:30am 25.5 21.2 9.3 36 8.9 NE 22 28 12 15 1008.4 1008.0 0.0
23/12:00am 24.9 20.9 9.2 37 8.6 NE 20 24 11 13 1008.4 1008.0 0.0
 
Date/Time
EDT
Temp
°C
App
Temp
°C
Dew
Point
°C
Rel
Hum
%
Delta-T
°C
Wind Press
QNH
hPa
Press
MSL
hPa
Rain since
9am
mm
Dir  Spd
km/h
Gust
km/h
Spd
kts
Gust
kts
22/11:30pm 25.1 21.0 8.6 35 8.9 NE 20 26 11 14 1008.7 1008.3 0.0
22/11:00pm 25.9 21.5 8.8 34 9.4 ENE 22 26 12 14 1008.8 1008.4 0.0
22/10:30pm 22.2 18.5 8.0 40 7.5 E 17 17 9 9 1009.1 1008.8 0.0
22/10:00pm 21.9 18.0 7.3 39 7.6 E 17 19 9 10 1009.3 1009.0 0.0
22/09:30pm 22.4 19.1 6.6 36 8.1 E 13 15 7 8 1009.5 1009.2 0.0
22/09:00pm 25.0 23.1 7.6 33 9.3 ESE 7 9 4 5 1009.2 1008.9 0.0
22/08:30pm 25.2 22.9 7.3 32 9.5 NE 9 11 5 6 1009.1 1008.8 0.0
22/08:00pm 27.5 25.4 8.4 30 10.5 NE 9 11 5 6 1009.1 1008.8 0.0
22/07:30pm 29.5 27.1 8.5 27 11.6 N 11 13 6 7 1009.2 1008.9 0.0
22/07:00pm 31.7 29.1 9.3 25 12.7 N 13 17 7 9 1009.1 1008.8 0.0
22/06:30pm 32.3 30.6 9.8 25 12.9 N 9 17 5 9 1009.0 1008.7 0.0
22/06:00pm 32.4 30.0 9.9 25 12.9 N 13 22 7 12 1009.2 1008.9 0.0
22/05:30pm 32.3 31.1 10.4 26 12.7 NNW 7 11 4 6 1009.3 1009.0 0.0
22/05:00pm 32.6 30.6 10.0 25 13.0 WNW 11 20 6 11 1009.6 1009.3 0.0
22/04:30pm 32.7 31.1 10.1 25 13.0 ESE 9 17 5 9 1010.0 1009.7 0.0
22/04:00pm 32.0 30.2 10.7 27 12.4 N 11 17 6 9 1010.3 1010.0 0.0
22/03:30pm 32.1 31.2 10.8 27 12.4 SW 6 13 3 7 1010.8 1010.5 0.0
22/03:00pm 31.8 30.2 11.6 29 11.9 NE 11 19 6 10 1011.3 1011.0 0.0
22/02:30pm 30.7 29.7 11.1 30 11.4 W 7 13 4 7 1011.9 1011.6 0.0
22/02:00pm 29.7 28.8 11.2 31 10.7 NNW 7 13 4 7 1012.3 1012.0 0.0
22/01:30pm 29.8 28.7 11.8 33 10.5 SE 9 15 5 8 1012.8 1012.5 0.0
22/01:00pm 29.1 27.8 12.5 36 9.8 E 11 17 6 9 1013.2 1012.9 0.0
22/12:30pm 27.8 27.4 13.0 40 8.7 E 7 13 4 7 1013.7 1013.3 0.0
22/12:00pm 27.4 26.5 13.7 43 8.2 E 11 17 6 9 1014.0 1013.6 0.0
22/11:30am 25.9 24.5 13.4 46 7.4 SE 13 20 7 11 1014.3 1013.9 0.0
22/11:00am 23.9 22.4 14.3 55 5.7 SE 15 20 8 11 1014.7 1014.3 0.0
22/10:30am 22.9 21.1 14.5 59 5.0 SE 17 22 9 12 1014.9 1014.5 0.0
22/10:00am 22.1 20.5 15.0 64 4.2 ESE 17 20 9 11 1014.8 1014.4 0.0
22/09:30am 20.1 20.1 15.3 74 2.9 SE 9 13 5 7 1014.8 1014.4 0.0
22/09:00am 17.1 17.1 14.2 83 1.7 SSW 7 9 4 5 1015.2 1014.8 0.0
22/08:30am 16.9 16.6 14.5 86 1.4 SSW 9 11 5 6 1015.0 1014.6 0.0
22/08:00am 16.3 16.0 14.5 89 1.0 SW 9 11 5 6 1015.0 1014.6 0.0
22/07:30am 16.0 15.6 14.2 89 1.0 SW 9 11 5 6 1014.9 1014.5 0.0
22/07:00am 16.2 15.8 14.2 88 1.1 SSW 9 11 5 6 1014.7 1014.3 0.0
22/06:30am 15.8 14.8 13.5 86 1.3 SSE 11 13 6 7 1014.3 1013.9 0.0
22/06:00am 16.5 15.0 14.3 87 1.3 SE 15 17 8 9 1014.1 1013.7 0.0
22/05:30am 15.1 14.0 13.0 87 1.2 SE 11 13 6 7 1014.1 1013.7 0.0
22/05:00am 15.4 15.1 13.2 87 1.2 S 7 9 4 5 1014.3 1013.9 0.0
22/04:30am 16.2 17.4 13.9 86 1.3 CALM 0 0 0 0 1014.3 1013.9 0.0
22/04:00am 16.3 16.1 13.6 84 1.5 SSW 7 9 4 5 1014.3 1013.9 0.0
22/03:30am 16.5 15.9 13.6 83 1.6 SSW 9 9 5 5 1014.2 1013.8 0.0
22/03:00am 17.2 16.8 14.1 82 1.8 SW 9 11 5 6 1014.4 1014.0 0.0
22/02:30am 16.9 16.4 13.8 82 1.8 SSW 9 11 5 6 1014.5 1014.1 0.0
22/02:00am 16.8 16.1 13.3 80 2.0 SSW 9 9 5 5 1014.7 1014.3 0.0
22/01:30am 17.6 17.2 14.1 80 2.0 SSW 9 9 5 5 1015.0 1014.6 0.0
22/01:00am 18.3 18.1 14.6 79 2.2 SW 9 11 5 6 1015.3 1014.9 0.0
22/12:30am 18.3 18.0 14.4 78 2.3 SSW 9 11 5 6 1015.3 1014.9 0.0
22/12:00am 18.5 17.8 14.4 77 2.4 SSW 11 15 6 8 1015.5 1015.2 0.0
 
Date/Time
EDT
Temp
°C
App
Temp
°C
Dew
Point
°C
Rel
Hum
%
Delta-T
°C
Wind Press
QNH
hPa
Press
MSL
hPa
Rain since
9am
mm
Dir  Spd
km/h
Gust
km/h
Spd
kts
Gust
kts
21/11:30pm 19.2 17.5 14.7 75 2.6 SSW 17 20 9 11 1015.4 1015.0 0.0
21/11:00pm 19.2 17.1 14.7 75 2.6 S 19 22 10 12 1015.3 1014.9 0.0
21/10:30pm 19.4 16.8 14.9 75 2.6 S 22 26 12 14 1015.3 1014.9 0.0
21/10:00pm 19.9 16.9 14.9 73 2.9 SSW 24 30 13 16 1015.3 1014.9 0.0
21/09:30pm 20.6 17.4 15.2 71 3.2 S 26 32 14 17 1014.9 1014.5 0.0
21/09:00pm 21.2 17.5 15.1 68 3.6 S 28 35 15 19 1014.6 1014.2 0.0
21/08:30pm 22.2 18.2 15.1 64 4.2 S 30 39 16 21 1014.5 1014.1 0.0
21/08:00pm 24.1 20.3 14.8 56 5.6 S 28 35 15 19 1014.3 1013.9 0.0
21/07:30pm 26.1 22.8 13.9 47 7.3 SSW 24 32 13 17 1013.7 1013.3 0.0
21/07:00pm 27.2 24.3 12.8 41 8.5 SW 20 26 11 14 1013.7 1013.3 0.0
21/06:30pm 28.0 25.6 11.5 35 9.5 SSW 15 22 8 12 1013.6 1013.2 0.0
21/06:00pm 28.4 27.1 10.1 32 10.3 SSE 7 13 4 7 1013.6 1013.2 0.0
21/05:30pm 28.4 26.1 10.6 33 10.1 SSW 13 22 7 12 1013.4 1013.1 0.0
21/05:00pm 28.9 27.4 10.6 32 10.4 WSW 9 15 5 8 1013.7 1013.3 0.0
21/04:30pm 28.9 26.8 9.6 30 10.8 SSW 11 19 6 10 1013.8 1013.4 0.0
21/04:00pm 28.9 27.0 10.6 32 10.4 SSW 11 20 6 11 1014.1 1013.7 0.0
21/03:30pm 28.4 25.9 9.6 31 10.5 SSW 13 20 7 11 1014.3 1013.9 0.0
21/03:00pm 28.3 27.0 11.4 35 9.7 W 9 15 5 8 1014.6 1014.2 0.0
21/02:30pm 28.2 27.3 11.3 35 9.7 SW 7 11 4 6 1015.0 1014.6 0.0
21/02:00pm 26.6 25.0 11.5 39 8.7 SSE 11 17 6 9 1015.6 1015.3 0.0
21/01:30pm 26.5 25.2 12.5 41 8.2 W 11 20 6 11 1015.9 1015.6 0.0
21/01:00pm 25.9 25.2 13.1 45 7.5 SSW 9 20 5 11 1016.4 1016.1 0.0
21/12:30pm 24.7 23.8 13.6 50 6.5 S 11 19 6 10 1016.6 1016.3 0.0
21/12:00pm 24.1 23.8 13.3 51 6.3 SSE 7 17 4 9 1017.0 1016.7 0.0
21/11:30am 22.4 21.6 14.0 59 4.9 SSW 11 17 6 9 1017.2 1016.9 0.0
21/11:00am 22.3 21.8 14.9 63 4.4 SSE 11 17 6 9 1017.3 1017.0 0.0
21/10:30am 21.1 20.8 14.5 66 3.9 S 9 17 5 9 1017.2 1016.9 0.0
21/10:00am 20.2 19.8 15.2 73 3.0 SSW 11 15 6 8 1017.0 1016.7 0.0
21/09:30am 18.2 18.3 16.5 90 1.0 SSW 11 15 6 8 1017.0 1016.7 0.0
21/09:00am 15.5 15.0 15.0 97 0.3 SW 11 13 6 7 1016.7 1016.4 0.0
21/08:30am 14.4 13.6 13.9 97 0.3 SW 11 13 6 7 1016.4 1016.1 0.0
21/08:00am 13.9 13.3 13.4 97 0.3 SW 9 11 5 6 1016.1 1015.8 0.0
21/07:52am 13.9 13.3 13.4 97 0.3 SW 9 11 5 6 1016.0 1015.7 0.0
21/07:34am 13.7 12.6 13.2 97 0.3 SW 11 13 6 7 1015.8 1015.5 0.0
21/07:30am 13.6 12.5 13.0 96 0.3 SW 11 13 6 7 1015.8 1015.5 0.0
21/07:00am 13.7 13.0 13.2 97 0.3 WSW 9 13 5 7 1015.4 1015.0 0.0
21/06:30am 13.8 13.7 13.2 96 0.3 SW 6 7 3 4 1015.0 1014.6 0.0
21/06:00am 14.2 13.6 13.6 96 0.3 SSW 9 9 5 5 1014.8 1014.4 0.0
21/05:30am 12.3 11.1 11.5 95 0.4 SSE 9 9 5 5 1014.7 1014.3 0.0
21/05:00am 13.8 12.7 13.0 95 0.4 SSW 11 11 6 6 1014.5 1014.1 0.0
21/04:30am 14.0 12.9 13.1 94 0.5 SW 11 11 6 6 1014.5 1014.1 0.0
21/04:00am 14.3 13.6 13.2 93 0.6 SSW 9 11 5 6 1014.5 1014.1 0.0
21/03:30am 14.6 13.6 13.3 92 0.7 SSW 11 11 6 6 1014.7 1014.3 0.0
21/03:00am 14.8 13.8 13.3 91 0.8 SW 11 13 6 7 1014.9 1014.5 0.0
21/02:30am 15.1 14.2 13.6 91 0.8 SW 11 11 6 6 1015.1 1014.7 0.0
21/02:00am 15.5 14.7 13.9 90 0.9 SW 11 13 6 7 1015.5 1015.2 0.0
21/01:30am 14.9 13.7 12.9 88 1.1 SSW 11 13 6 7 1015.7 1015.4 0.0
21/01:00am 15.9 14.6 13.6 86 1.3 SW 13 13 7 7 1015.9 1015.6 0.0
21/12:30am 16.0 15.4 13.5 85 1.4 SSW 9 13 5 7 1015.9 1015.6 0.0
21/12:00am 16.5 15.2 13.6 83 1.6 SSW 13 15 7 8 1015.9 1015.6 0.0
 
Date/Time
EDT
Temp
°C
App
Temp
°C
Dew
Point
°C
Rel
Hum
%
Delta-T
°C
Wind Press
QNH
hPa
Press
MSL
hPa
Rain since
9am
mm
Dir  Spd
km/h
Gust
km/h
Spd
kts
Gust
kts
20/11:30pm 17.8 16.3 14.3 80 2.0 SSW 15 19 8 10 1016.0 1015.7 0.0
20/11:00pm 18.3 16.2 14.6 79 2.2 S 19 22 10 12 1015.7 1015.4 0.0
20/10:30pm 18.8 16.1 14.7 77 2.4 S 22 28 12 15 1015.5 1015.2 0.0
20/10:00pm 19.5 16.5 14.7 74 2.8 S 24 30 13 16 1015.4 1015.0 0.0
20/09:30pm 20.2 16.8 14.8 71 3.2 S 26 32 14 17 1015.2 1014.8 0.0
20/09:00pm 21.4 18.4 14.8 66 3.9 S 24 32 13 17 1014.8 1014.4 0.0
20/08:30pm 22.7 18.8 14.5 60 4.9 S 28 32 15 17 1014.4 1014.0 0.0
20/08:00pm 24.5 21.6 14.0 52 6.2 S 22 32 12 17 1013.9 1013.5 0.0
20/07:30pm 25.7 22.7 12.5 44 7.7 SW 20 26 11 14 1013.6 1013.2 0.0
20/07:00pm 26.7 22.6 11.6 39 8.7 SSW 24 32 13 17 1013.2 1012.9 0.0
20/06:30pm 28.3 24.0 12.2 37 9.4 SW 26 35 14 19 1013.1 1012.8 0.0
20/06:00pm 28.9 24.9 10.6 32 10.5 SW 22 30 12 16 1013.0 1012.7 0.0
20/05:30pm 29.5 26.3 10.1 30 11.0 SW 17 28 9 15 1012.9 1012.6 0.0
20/05:00pm 29.5 27.2 10.6 31 10.8 S 13 19 7 10 1012.9 1012.6 0.0
20/04:30pm 29.3 27.0 10.4 31 10.8 SSW 13 24 7 13 1013.1 1012.8 0.0
20/04:00pm 28.9 26.5 10.1 31 10.6 WSW 13 24 7 13 1013.3 1013.0 0.0
20/03:30pm 28.1 25.4 10.3 33 10.1 SSW 15 24 8 13 1013.6 1013.2 0.0
20/03:00pm 28.4 25.0 10.6 33 10.1 SW 19 24 10 13 1013.9 1013.5 0.0
20/02:30pm 27.1 24.1 10.8 36 9.3 SW 17 26 9 14 1014.5 1014.1 0.0
20/02:00pm 27.0 24.7 11.9 39 8.7 S 15 24 8 13 1014.7 1014.3 0.0
20/01:30pm 26.0 24.2 12.1 42 8.0 SSW 13 20 7 11 1015.2 1014.8 0.0

Other formats

Comma delimited format used in spreadsheet applications
http://www.bom.gov.au/fwo/IDV60801/IDV60801.95839.axf

JavaScript Object Notation format (JSON) in row-major order
http://www.bom.gov.au/fwo/IDV60801/IDV60801.95839.json

Data quality

Most of these data are generated automatically and are frequently updated. Quality checks on data are not normally performed. It is possible for incorrect values to appear. Refer to information at About Latest Weather Observations and please check the disclaimer before using these data.